Aérodrome :
LOGIN :

S'inscrire | Disclaimer

   EN    FR    IT 

 










Légende :    VFR   VFR Marginal   IFR   IFR Intensif   IFR Très Intensif
Visi : 
Plafond : 
>= 8 km
>= 3000ft
5 à 8 km
1000 à 3000 ft
1500m à 5 km
500 à 1000 ft
800 à 1500m
200 à 500 ft
< 800m
< 200 ft
Symboles :   Orages  Brouillard  Fortes neiges  Fortes précipitations  Vent > 20 kt
SIGMETs :   Divers  Orages  Givrage  Turbulence  Onde Orograph.  Cendres Volcan.







- Altitude de l'aérodrome : 297 ft
- Code IATA : ODB


LEBA - Córdoba

DERNIER METAR :
  • 201530Z 23006KT 190V290 9999 FEW040TCU 25/10 Q1011

METARs EXPIRÉS :
  • 201500Z 26006KT 210V320 9999 FEW040TCU 24/13 Q1011
  • 201430Z 04001KT 9999 FEW040TCU 23/09 Q1011
  • 201400Z 30004KT 220V360 9999 FEW040TCU 21/11 Q1011
  • 201330Z 26004KT 210V300 9999 SCT030TCU 19/12 Q1012
  • 201300Z 30007KT 260V330 9999 -RA VCSH SCT030TCU 19/12 Q1013

TAF TAF LEBA
Valide du 20 à 15h jusqu'au 21 à 00h UTC


201400Z 2015/2024 30005KT 9999 SCT040
PROB40
TEMPO 2015/2020 30015G25KT 4000 TSRA FEW030CB SCT040TCU
Pas de NOTAMs connus pour ce terrain.
4 SIGMETs publiés pour la FIR Madrid (LECM) :
 
Orages noyés dans la masse
LECM SIGMET 9 VALID 201600/201800 LEVA
LECM MADRID FIR/UIR EMBD TS OBS AT 1543Z E OF LINE N4313 W00132 - N4150 W00335 TOP FL380 STNR WKN=
Orages noyés dans la masse
LECM SIGMET 8 VALID 201400/201600 LEVA
LECM MADRID FIR/UIR EMBD TS OBS AT 1347Z WI N3621 W00539 - N3648 W00237 - N3842 W00236 - N3804 W00420 - N3654 W00556 - N3621 W00539 TOP FL380 STNR NC=
Orages noyés dans la masse
LECM SIGMET 7 VALID 201300/201600 LEVA
LECM MADRID FIR/UIR EMBD TS OBS AT 1250Z E OF LINE N4256 W00103 - N3931 W00143 TOP FL390 MOV SSW NC=
Orages noyés dans la masse
LECM SIGMET 6 VALID 201300/201600 LEVA
LECM MADRID FIR/UIR EMBD TS OBS AT 1250Z W OF LINE N4116 W00322 - N3704 W00615 TOP FL420 MOV S NC=



MET'MAP, la Météo Aéronautique d'un coup d'oeil ! - Copyright ORBIFLY Décembre 2007 - Disclaimer

ORBIFLY MET'MAP TEAM :

Programmation & Développement : Alexandra Zaïnal
Conception & Développement : Baudouin d'Aumeries
Co-Programmation & Développement : Marc-Olivier Méhu
Soutien technique & logistique : Manuel Goepfert

Contact : metmap@orbifly.com




SOURCES & CREDITS :

   NOAA